sensor_id;sensor_type;location;lat;lon;timestamp;temperature;humidity
32522;DHT22;18963;51.504;5.316;2023-11-21T00:00:51;6.00;99.90
32522;DHT22;18963;51.504;5.316;2023-11-21T00:03:16;5.90;99.90
32522;DHT22;18963;51.504;5.316;2023-11-21T00:05:42;5.80;99.90
32522;DHT22;18963;51.504;5.316;2023-11-21T00:08:08;5.70;99.90
32522;DHT22;18963;51.504;5.316;2023-11-21T00:10:34;5.60;99.90
32522;DHT22;18963;51.504;5.316;2023-11-21T00:12:59;5.60;99.90
32522;DHT22;18963;51.504;5.316;2023-11-21T00:15:25;5.50;99.90
32522;DHT22;18963;51.504;5.316;2023-11-21T00:17:51;5.40;99.90
32522;DHT22;18963;51.504;5.316;2023-11-21T00:20:17;5.40;99.90
32522;DHT22;18963;51.504;5.316;2023-11-21T00:22:42;5.30;99.90
32522;DHT22;18963;51.504;5.316;2023-11-21T00:25:08;5.30;99.90
32522;DHT22;18963;51.504;5.316;2023-11-21T00:27:34;5.20;99.90
32522;DHT22;18963;51.504;5.316;2023-11-21T00:30:00;5.20;99.90
32522;DHT22;18963;51.504;5.316;2023-11-21T00:32:25;5.10;99.90
32522;DHT22;18963;51.504;5.316;2023-11-21T00:34:51;5.10;99.90
32522;DHT22;18963;51.504;5.316;2023-11-21T00:37:16;5.00;99.90
32522;DHT22;18963;51.504;5.316;2023-11-21T00:39:42;4.90;99.90
32522;DHT22;18963;51.504;5.316;2023-11-21T00:42:07;4.80;99.90
32522;DHT22;18963;51.504;5.316;2023-11-21T00:44:33;4.70;99.90
32522;DHT22;18963;51.504;5.316;2023-11-21T00:46:59;4.70;99.90
32522;DHT22;18963;51.504;5.316;2023-11-21T00:49:25;4.60;99.90
32522;DHT22;18963;51.504;5.316;2023-11-21T00:51:50;4.50;99.90
32522;DHT22;18963;51.504;5.316;2023-11-21T00:54:15;4.40;99.90
32522;DHT22;18963;51.504;5.316;2023-11-21T00:56:42;4.40;99.90
32522;DHT22;18963;51.504;5.316;2023-11-21T00:59:08;4.40;99.90
32522;DHT22;18963;51.504;5.316;2023-11-21T01:01:33;4.30;99.90
32522;DHT22;18963;51.504;5.316;2023-11-21T01:03:58;4.30;99.90
32522;DHT22;18963;51.504;5.316;2023-11-21T01:06:24;4.20;99.90
32522;DHT22;18963;51.504;5.316;2023-11-21T01:08:49;4.10;99.90
32522;DHT22;18963;51.504;5.316;2023-11-21T01:11:15;4.10;99.90
32522;DHT22;18963;51.504;5.316;2023-11-21T01:13:41;4.00;99.90
32522;DHT22;18963;51.504;5.316;2023-11-21T01:16:07;4.00;99.90
32522;DHT22;18963;51.504;5.316;2023-11-21T01:18:32;3.90;99.90
32522;DHT22;18963;51.504;5.316;2023-11-21T01:20:58;3.80;99.90
32522;DHT22;18963;51.504;5.316;2023-11-21T01:23:25;3.80;99.90
32522;DHT22;18963;51.504;5.316;2023-11-21T01:25:52;3.80;99.90
32522;DHT22;18963;51.504;5.316;2023-11-21T01:28:17;3.80;99.90
32522;DHT22;18963;51.504;5.316;2023-11-21T01:30:43;3.70;99.90
32522;DHT22;18963;51.504;5.316;2023-11-21T01:33:09;3.60;99.90
32522;DHT22;18963;51.504;5.316;2023-11-21T01:35:35;3.60;99.90
32522;DHT22;18963;51.504;5.316;2023-11-21T01:38:01;3.60;99.90
32522;DHT22;18963;51.504;5.316;2023-11-21T01:40:26;3.50;99.90
32522;DHT22;18963;51.504;5.316;2023-11-21T01:42:53;3.50;99.90
32522;DHT22;18963;51.504;5.316;2023-11-21T01:45:18;3.50;99.90
32522;DHT22;18963;51.504;5.316;2023-11-21T01:47:44;3.40;99.90
32522;DHT22;18963;51.504;5.316;2023-11-21T01:50:10;3.40;99.90
32522;DHT22;18963;51.504;5.316;2023-11-21T01:52:38;3.50;99.90
32522;DHT22;18963;51.504;5.316;2023-11-21T01:55:04;3.60;99.90
32522;DHT22;18963;51.504;5.316;2023-11-21T01:57:31;3.60;99.90
32522;DHT22;18963;51.504;5.316;2023-11-21T01:59:57;3.60;99.90
32522;DHT22;18963;51.504;5.316;2023-11-21T02:02:24;3.70;99.90
32522;DHT22;18963;51.504;5.316;2023-11-21T02:04:49;3.70;99.90
32522;DHT22;18963;51.504;5.316;2023-11-21T02:07:15;3.80;99.90
32522;DHT22;18963;51.504;5.316;2023-11-21T02:09:40;3.80;99.90
32522;DHT22;18963;51.504;5.316;2023-11-21T02:12:07;3.90;99.90
32522;DHT22;18963;51.504;5.316;2023-11-21T02:14:34;4.00;99.90
32522;DHT22;18963;51.504;5.316;2023-11-21T02:16:59;4.10;99.90
32522;DHT22;18963;51.504;5.316;2023-11-21T02:19:26;4.20;99.90
32522;DHT22;18963;51.504;5.316;2023-11-21T02:21:52;4.30;99.90
32522;DHT22;18963;51.504;5.316;2023-11-21T02:24:19;4.40;99.90
32522;DHT22;18963;51.504;5.316;2023-11-21T02:26:44;4.50;99.90
32522;DHT22;18963;51.504;5.316;2023-11-21T02:29:11;4.50;99.90
32522;DHT22;18963;51.504;5.316;2023-11-21T02:31:38;4.60;99.90
32522;DHT22;18963;51.504;5.316;2023-11-21T02:34:13;4.70;99.90
32522;DHT22;18963;51.504;5.316;2023-11-21T02:36:39;4.70;99.90
32522;DHT22;18963;51.504;5.316;2023-11-21T02:39:04;4.80;99.90
32522;DHT22;18963;51.504;5.316;2023-11-21T02:41:30;4.80;99.90
32522;DHT22;18963;51.504;5.316;2023-11-21T02:43:55;4.80;99.90
32522;DHT22;18963;51.504;5.316;2023-11-21T02:46:21;4.90;99.90
32522;DHT22;18963;51.504;5.316;2023-11-21T02:48:47;4.90;99.90
32522;DHT22;18963;51.504;5.316;2023-11-21T02:51:12;4.90;99.90
32522;DHT22;18963;51.504;5.316;2023-11-21T02:53:38;4.90;99.90
32522;DHT22;18963;51.504;5.316;2023-11-21T02:56:04;5.00;99.90
32522;DHT22;18963;51.504;5.316;2023-11-21T02:58:29;5.00;99.90
32522;DHT22;18963;51.504;5.316;2023-11-21T03:00:55;5.00;99.90
32522;DHT22;18963;51.504;5.316;2023-11-21T03:03:21;5.00;99.90
32522;DHT22;18963;51.504;5.316;2023-11-21T03:05:49;5.00;99.90
32522;DHT22;18963;51.504;5.316;2023-11-21T03:08:14;5.00;99.90
32522;DHT22;18963;51.504;5.316;2023-11-21T03:10:40;5.00;99.90
32522;DHT22;18963;51.504;5.316;2023-11-21T03:13:05;5.00;99.90
32522;DHT22;18963;51.504;5.316;2023-11-21T03:15:30;5.00;99.90
32522;DHT22;18963;51.504;5.316;2023-11-21T03:17:57;5.00;99.90
32522;DHT22;18963;51.504;5.316;2023-11-21T03:20:23;5.00;99.90
32522;DHT22;18963;51.504;5.316;2023-11-21T03:22:48;5.00;99.90
32522;DHT22;18963;51.504;5.316;2023-11-21T03:25:14;5.00;99.90
32522;DHT22;18963;51.504;5.316;2023-11-21T03:27:40;4.90;99.90
32522;DHT22;18963;51.504;5.316;2023-11-21T03:30:07;4.90;99.90
32522;DHT22;18963;51.504;5.316;2023-11-21T03:32:33;4.90;99.90
32522;DHT22;18963;51.504;5.316;2023-11-21T03:34:59;4.90;99.90
32522;DHT22;18963;51.504;5.316;2023-11-21T03:37:25;4.90;99.90
32522;DHT22;18963;51.504;5.316;2023-11-21T03:39:52;4.80;99.90
32522;DHT22;18963;51.504;5.316;2023-11-21T03:42:18;4.80;99.90
32522;DHT22;18963;51.504;5.316;2023-11-21T03:44:43;4.80;99.90
32522;DHT22;18963;51.504;5.316;2023-11-21T03:47:09;4.80;99.90
32522;DHT22;18963;51.504;5.316;2023-11-21T03:49:35;4.80;99.90
32522;DHT22;18963;51.504;5.316;2023-11-21T03:52:00;4.70;99.90
32522;DHT22;18963;51.504;5.316;2023-11-21T03:54:25;4.80;99.90
32522;DHT22;18963;51.504;5.316;2023-11-21T03:56:51;4.80;99.90
32522;DHT22;18963;51.504;5.316;2023-11-21T03:59:17;4.80;99.90
32522;DHT22;18963;51.504;5.316;2023-11-21T04:01:42;4.80;99.90
32522;DHT22;18963;51.504;5.316;2023-11-21T04:04:08;4.80;99.90
32522;DHT22;18963;51.504;5.316;2023-11-21T04:06:33;4.80;99.90
32522;DHT22;18963;51.504;5.316;2023-11-21T04:08:59;4.90;99.90
32522;DHT22;18963;51.504;5.316;2023-11-21T04:11:24;4.90;99.90
32522;DHT22;18963;51.504;5.316;2023-11-21T04:13:50;4.90;99.90
32522;DHT22;18963;51.504;5.316;2023-11-21T04:16:15;4.90;99.90
32522;DHT22;18963;51.504;5.316;2023-11-21T04:18:40;5.00;99.90
32522;DHT22;18963;51.504;5.316;2023-11-21T04:21:06;5.00;99.90
32522;DHT22;18963;51.504;5.316;2023-11-21T04:23:31;5.00;99.90
32522;DHT22;18963;51.504;5.316;2023-11-21T04:25:57;5.00;99.90
32522;DHT22;18963;51.504;5.316;2023-11-21T04:28:23;5.00;99.90
32522;DHT22;18963;51.504;5.316;2023-11-21T04:30:49;5.10;99.90
32522;DHT22;18963;51.504;5.316;2023-11-21T04:33:15;5.20;99.90
32522;DHT22;18963;51.504;5.316;2023-11-21T04:35:41;5.20;99.90
32522;DHT22;18963;51.504;5.316;2023-11-21T04:38:06;5.20;99.90
32522;DHT22;18963;51.504;5.316;2023-11-21T04:40:32;5.30;99.90
32522;DHT22;18963;51.504;5.316;2023-11-21T04:42:57;5.30;99.90
32522;DHT22;18963;51.504;5.316;2023-11-21T04:45:23;5.30;99.90
32522;DHT22;18963;51.504;5.316;2023-11-21T04:47:48;5.40;99.90
32522;DHT22;18963;51.504;5.316;2023-11-21T04:50:14;5.40;99.90
32522;DHT22;18963;51.504;5.316;2023-11-21T04:52:39;5.50;99.90
32522;DHT22;18963;51.504;5.316;2023-11-21T04:55:05;5.50;99.90
32522;DHT22;18963;51.504;5.316;2023-11-21T04:57:34;5.50;99.90
32522;DHT22;18963;51.504;5.316;2023-11-21T05:00:00;5.50;99.90
32522;DHT22;18963;51.504;5.316;2023-11-21T05:02:25;5.50;99.90
32522;DHT22;18963;51.504;5.316;2023-11-21T05:04:50;5.60;99.90
32522;DHT22;18963;51.504;5.316;2023-11-21T05:07:16;5.60;99.90
32522;DHT22;18963;51.504;5.316;2023-11-21T05:09:44;5.60;99.90
32522;DHT22;18963;51.504;5.316;2023-11-21T05:12:14;5.60;99.90
32522;DHT22;18963;51.504;5.316;2023-11-21T05:14:40;5.60;99.90
32522;DHT22;18963;51.504;5.316;2023-11-21T05:17:05;5.70;99.90
32522;DHT22;18963;51.504;5.316;2023-11-21T05:19:31;5.70;99.90
32522;DHT22;18963;51.504;5.316;2023-11-21T05:21:58;5.80;99.90
32522;DHT22;18963;51.504;5.316;2023-11-21T05:24:24;5.80;99.90
32522;DHT22;18963;51.504;5.316;2023-11-21T05:26:49;5.80;99.90
32522;DHT22;18963;51.504;5.316;2023-11-21T05:29:15;5.80;99.90
32522;DHT22;18963;51.504;5.316;2023-11-21T05:31:40;5.90;99.90
32522;DHT22;18963;51.504;5.316;2023-11-21T05:34:05;5.90;99.90
32522;DHT22;18963;51.504;5.316;2023-11-21T05:36:31;5.90;99.90
32522;DHT22;18963;51.504;5.316;2023-11-21T05:38:56;5.90;99.90
32522;DHT22;18963;51.504;5.316;2023-11-21T05:41:22;6.00;99.90
32522;DHT22;18963;51.504;5.316;2023-11-21T05:43:48;6.00;99.90
32522;DHT22;18963;51.504;5.316;2023-11-21T05:46:14;6.00;99.90
32522;DHT22;18963;51.504;5.316;2023-11-21T05:48:39;6.10;99.90
32522;DHT22;18963;51.504;5.316;2023-11-21T05:51:06;6.10;99.90
32522;DHT22;18963;51.504;5.316;2023-11-21T05:53:31;6.10;99.90
32522;DHT22;18963;51.504;5.316;2023-11-21T05:55:57;6.20;99.90
32522;DHT22;18963;51.504;5.316;2023-11-21T05:58:22;6.20;99.90
32522;DHT22;18963;51.504;5.316;2023-11-21T06:00:48;6.20;99.90
32522;DHT22;18963;51.504;5.316;2023-11-21T06:03:13;6.20;99.90
32522;DHT22;18963;51.504;5.316;2023-11-21T06:05:39;6.30;99.90
32522;DHT22;18963;51.504;5.316;2023-11-21T06:08:04;6.30;99.90
32522;DHT22;18963;51.504;5.316;2023-11-21T06:10:31;6.30;99.90
32522;DHT22;18963;51.504;5.316;2023-11-21T06:12:57;6.30;99.90
32522;DHT22;18963;51.504;5.316;2023-11-21T06:15:23;6.30;99.90
32522;DHT22;18963;51.504;5.316;2023-11-21T06:17:49;6.40;99.90
32522;DHT22;18963;51.504;5.316;2023-11-21T06:20:17;6.40;99.90
32522;DHT22;18963;51.504;5.316;2023-11-21T06:22:44;6.40;99.90
32522;DHT22;18963;51.504;5.316;2023-11-21T06:25:09;6.50;99.90
32522;DHT22;18963;51.504;5.316;2023-11-21T06:27:42;6.50;99.90
32522;DHT22;18963;51.504;5.316;2023-11-21T06:30:08;6.50;99.90
32522;DHT22;18963;51.504;5.316;2023-11-21T06:32:37;6.50;99.90
32522;DHT22;18963;51.504;5.316;2023-11-21T06:35:03;6.50;99.90
32522;DHT22;18963;51.504;5.316;2023-11-21T06:37:29;6.60;99.90
32522;DHT22;18963;51.504;5.316;2023-11-21T06:39:56;6.60;99.90
32522;DHT22;18963;51.504;5.316;2023-11-21T06:42:22;6.60;99.90
32522;DHT22;18963;51.504;5.316;2023-11-21T06:44:47;6.60;99.90
32522;DHT22;18963;51.504;5.316;2023-11-21T06:47:14;6.60;99.90
32522;DHT22;18963;51.504;5.316;2023-11-21T06:49:40;6.70;99.90
32522;DHT22;18963;51.504;5.316;2023-11-21T06:52:06;6.70;99.90
32522;DHT22;18963;51.504;5.316;2023-11-21T06:54:31;6.70;99.90
32522;DHT22;18963;51.504;5.316;2023-11-21T06:56:58;6.70;99.90
32522;DHT22;18963;51.504;5.316;2023-11-21T06:59:23;6.70;99.90
32522;DHT22;18963;51.504;5.316;2023-11-21T07:01:49;6.80;99.90
32522;DHT22;18963;51.504;5.316;2023-11-21T07:04:14;6.80;99.90
32522;DHT22;18963;51.504;5.316;2023-11-21T07:06:40;6.80;99.90
32522;DHT22;18963;51.504;5.316;2023-11-21T07:09:06;6.80;99.90
32522;DHT22;18963;51.504;5.316;2023-11-21T07:11:34;6.90;99.90
32522;DHT22;18963;51.504;5.316;2023-11-21T07:13:59;6.90;99.90
32522;DHT22;18963;51.504;5.316;2023-11-21T07:16:25;6.90;99.90
32522;DHT22;18963;51.504;5.316;2023-11-21T07:18:52;6.90;99.90
32522;DHT22;18963;51.504;5.316;2023-11-21T07:21:17;7.00;99.90
32522;DHT22;18963;51.504;5.316;2023-11-21T07:23:43;7.00;99.90
32522;DHT22;18963;51.504;5.316;2023-11-21T07:26:08;7.00;99.90
32522;DHT22;18963;51.504;5.316;2023-11-21T07:28:35;7.10;99.90
32522;DHT22;18963;51.504;5.316;2023-11-21T07:31:01;7.10;99.90
32522;DHT22;18963;51.504;5.316;2023-11-21T07:33:27;7.10;99.90
32522;DHT22;18963;51.504;5.316;2023-11-21T07:35:52;7.20;99.90
32522;DHT22;18963;51.504;5.316;2023-11-21T07:38:18;7.20;99.90
32522;DHT22;18963;51.504;5.316;2023-11-21T07:40:43;7.20;99.90
32522;DHT22;18963;51.504;5.316;2023-11-21T07:43:09;7.30;99.90
32522;DHT22;18963;51.504;5.316;2023-11-21T07:45:35;7.30;99.90
32522;DHT22;18963;51.504;5.316;2023-11-21T07:48:01;7.30;99.90
32522;DHT22;18963;51.504;5.316;2023-11-21T07:50:28;7.40;99.90
32522;DHT22;18963;51.504;5.316;2023-11-21T07:52:54;7.40;99.90
32522;DHT22;18963;51.504;5.316;2023-11-21T07:55:20;7.50;99.90
32522;DHT22;18963;51.504;5.316;2023-11-21T07:57:45;7.60;99.90
32522;DHT22;18963;51.504;5.316;2023-11-21T08:00:11;7.60;99.90
32522;DHT22;18963;51.504;5.316;2023-11-21T08:02:38;7.60;99.90
32522;DHT22;18963;51.504;5.316;2023-11-21T08:05:04;7.60;99.90
32522;DHT22;18963;51.504;5.316;2023-11-21T08:07:30;7.70;99.90
32522;DHT22;18963;51.504;5.316;2023-11-21T08:09:56;7.70;99.90
32522;DHT22;18963;51.504;5.316;2023-11-21T08:12:22;7.80;99.90
32522;DHT22;18963;51.504;5.316;2023-11-21T08:14:47;7.80;99.90
32522;DHT22;18963;51.504;5.316;2023-11-21T08:17:13;7.90;99.90
32522;DHT22;18963;51.504;5.316;2023-11-21T08:19:39;7.90;99.90
32522;DHT22;18963;51.504;5.316;2023-11-21T08:22:04;8.00;99.90
32522;DHT22;18963;51.504;5.316;2023-11-21T08:24:32;8.00;99.90
32522;DHT22;18963;51.504;5.316;2023-11-21T08:26:58;8.00;99.90
32522;DHT22;18963;51.504;5.316;2023-11-21T08:29:23;8.10;99.90
32522;DHT22;18963;51.504;5.316;2023-11-21T08:31:49;8.10;99.90
32522;DHT22;18963;51.504;5.316;2023-11-21T08:34:14;8.10;99.90
32522;DHT22;18963;51.504;5.316;2023-11-21T08:36:43;8.20;99.90
32522;DHT22;18963;51.504;5.316;2023-11-21T08:39:09;8.20;99.90
32522;DHT22;18963;51.504;5.316;2023-11-21T08:41:35;8.20;99.90
32522;DHT22;18963;51.504;5.316;2023-11-21T08:44:02;8.30;99.90
32522;DHT22;18963;51.504;5.316;2023-11-21T08:46:27;8.30;99.90
32522;DHT22;18963;51.504;5.316;2023-11-21T08:48:53;8.30;99.90
32522;DHT22;18963;51.504;5.316;2023-11-21T08:51:18;8.30;99.90
32522;DHT22;18963;51.504;5.316;2023-11-21T08:53:44;8.40;99.90
32522;DHT22;18963;51.504;5.316;2023-11-21T08:56:15;8.40;99.90
32522;DHT22;18963;51.504;5.316;2023-11-21T08:58:40;8.50;99.90
32522;DHT22;18963;51.504;5.316;2023-11-21T09:01:06;8.50;99.90
32522;DHT22;18963;51.504;5.316;2023-11-21T09:03:32;8.60;99.90
32522;DHT22;18963;51.504;5.316;2023-11-21T09:06:00;8.60;99.90
32522;DHT22;18963;51.504;5.316;2023-11-21T09:08:25;8.70;99.90
32522;DHT22;18963;51.504;5.316;2023-11-21T09:10:51;8.70;99.90
32522;DHT22;18963;51.504;5.316;2023-11-21T09:13:17;8.80;99.90
32522;DHT22;18963;51.504;5.316;2023-11-21T09:15:43;8.90;99.90
32522;DHT22;18963;51.504;5.316;2023-11-21T09:18:14;8.90;99.90
32522;DHT22;18963;51.504;5.316;2023-11-21T09:20:40;9.00;99.90
32522;DHT22;18963;51.504;5.316;2023-11-21T09:23:06;9.00;99.90
32522;DHT22;18963;51.504;5.316;2023-11-21T09:25:32;9.00;99.90
32522;DHT22;18963;51.504;5.316;2023-11-21T09:27:58;9.00;99.90
32522;DHT22;18963;51.504;5.316;2023-11-21T09:30:23;9.10;99.90
32522;DHT22;18963;51.504;5.316;2023-11-21T09:32:50;9.10;99.90
32522;DHT22;18963;51.504;5.316;2023-11-21T09:35:15;9.10;99.90
32522;DHT22;18963;51.504;5.316;2023-11-21T09:37:45;9.20;99.90
32522;DHT22;18963;51.504;5.316;2023-11-21T09:40:11;9.30;99.90
32522;DHT22;18963;51.504;5.316;2023-11-21T09:43:00;9.40;99.90
32522;DHT22;18963;51.504;5.316;2023-11-21T09:45:34;9.50;99.90
32522;DHT22;18963;51.504;5.316;2023-11-21T09:48:00;9.60;99.90
32522;DHT22;18963;51.504;5.316;2023-11-21T09:50:26;9.80;99.90
32522;DHT22;18963;51.504;5.316;2023-11-21T09:53:09;9.80;99.90
32522;DHT22;18963;51.504;5.316;2023-11-21T09:55:37;9.90;99.90
32522;DHT22;18963;51.504;5.316;2023-11-21T09:58:04;10.00;99.90
32522;DHT22;18963;51.504;5.316;2023-11-21T10:00:32;10.10;99.90
32522;DHT22;18963;51.504;5.316;2023-11-21T10:02:58;10.10;99.90
32522;DHT22;18963;51.504;5.316;2023-11-21T10:05:24;10.20;99.90
32522;DHT22;18963;51.504;5.316;2023-11-21T10:07:50;10.30;99.90
32522;DHT22;18963;51.504;5.316;2023-11-21T10:10:16;10.30;99.90
32522;DHT22;18963;51.504;5.316;2023-11-21T10:12:43;10.50;99.90
32522;DHT22;18963;51.504;5.316;2023-11-21T10:15:10;10.50;99.90
32522;DHT22;18963;51.504;5.316;2023-11-21T10:17:37;10.60;99.90
32522;DHT22;18963;51.504;5.316;2023-11-21T10:20:08;10.70;99.90
32522;DHT22;18963;51.504;5.316;2023-11-21T10:22:40;10.80;99.90
32522;DHT22;18963;51.504;5.316;2023-11-21T10:25:06;10.80;99.90
32522;DHT22;18963;51.504;5.316;2023-11-21T10:27:33;10.80;99.90
32522;DHT22;18963;51.504;5.316;2023-11-21T10:30:00;10.80;99.90
32522;DHT22;18963;51.504;5.316;2023-11-21T10:32:29;10.80;99.90
32522;DHT22;18963;51.504;5.316;2023-11-21T10:34:57;10.70;99.90
32522;DHT22;18963;51.504;5.316;2023-11-21T10:37:23;10.70;99.90
32522;DHT22;18963;51.504;5.316;2023-11-21T10:39:48;10.70;99.90
32522;DHT22;18963;51.504;5.316;2023-11-21T10:42:14;10.80;99.90
32522;DHT22;18963;51.504;5.316;2023-11-21T10:44:41;10.80;99.90
32522;DHT22;18963;51.504;5.316;2023-11-21T10:47:08;10.80;99.90
32522;DHT22;18963;51.504;5.316;2023-11-21T10:49:33;10.90;99.90
32522;DHT22;18963;51.504;5.316;2023-11-21T10:51:59;11.00;99.90
32522;DHT22;18963;51.504;5.316;2023-11-21T10:54:25;11.00;99.90
32522;DHT22;18963;51.504;5.316;2023-11-21T10:56:53;11.10;99.90
32522;DHT22;18963;51.504;5.316;2023-11-21T10:59:18;11.10;99.90
32522;DHT22;18963;51.504;5.316;2023-11-21T11:01:46;11.10;99.90
32522;DHT22;18963;51.504;5.316;2023-11-21T11:04:11;11.10;99.90
32522;DHT22;18963;51.504;5.316;2023-11-21T11:06:44;11.20;99.90
32522;DHT22;18963;51.504;5.316;2023-11-21T11:09:11;11.20;99.90
32522;DHT22;18963;51.504;5.316;2023-11-21T11:11:39;11.20;99.90
32522;DHT22;18963;51.504;5.316;2023-11-21T11:14:07;11.30;99.90
32522;DHT22;18963;51.504;5.316;2023-11-21T11:16:34;11.20;99.90
32522;DHT22;18963;51.504;5.316;2023-11-21T11:19:00;11.20;99.90
32522;DHT22;18963;51.504;5.316;2023-11-21T11:26:41;11.20;99.90
32522;DHT22;18963;51.504;5.316;2023-11-21T11:31:39;11.10;99.90
32522;DHT22;18963;51.504;5.316;2023-11-21T11:36:59;11.20;99.90
32522;DHT22;18963;51.504;5.316;2023-11-21T11:39:26;11.20;99.90
32522;DHT22;18963;51.504;5.316;2023-11-21T11:41:52;11.20;99.90
32522;DHT22;18963;51.504;5.316;2023-11-21T11:47:01;11.20;99.90
32522;DHT22;18963;51.504;5.316;2023-11-21T11:49:27;11.20;99.90
32522;DHT22;18963;51.504;5.316;2023-11-21T11:54:51;11.10;99.90
32522;DHT22;18963;51.504;5.316;2023-11-21T11:57:18;11.00;99.90
32522;DHT22;18963;51.504;5.316;2023-11-21T12:02:59;11.00;99.90
32522;DHT22;18963;51.504;5.316;2023-11-21T12:05:28;11.00;99.90
32522;DHT22;18963;51.504;5.316;2023-11-21T12:07:57;10.90;99.90
32522;DHT22;18963;51.504;5.316;2023-11-21T12:10:24;10.90;99.90
32522;DHT22;18963;51.504;5.316;2023-11-21T12:12:50;10.90;99.90
32522;DHT22;18963;51.504;5.316;2023-11-21T12:15:18;10.80;99.90
32522;DHT22;18963;51.504;5.316;2023-11-21T12:17:44;10.80;99.90
32522;DHT22;18963;51.504;5.316;2023-11-21T12:20:13;10.80;99.90
32522;DHT22;18963;51.504;5.316;2023-11-21T12:22:49;10.70;99.90
32522;DHT22;18963;51.504;5.316;2023-11-21T12:25:18;10.80;99.90
32522;DHT22;18963;51.504;5.316;2023-11-21T12:27:47;10.80;99.90
32522;DHT22;18963;51.504;5.316;2023-11-21T12:30:15;10.80;99.90
32522;DHT22;18963;51.504;5.316;2023-11-21T12:32:41;10.80;99.90
32522;DHT22;18963;51.504;5.316;2023-11-21T12:35:11;10.80;99.90
32522;DHT22;18963;51.504;5.316;2023-11-21T12:37:37;10.80;99.90
32522;DHT22;18963;51.504;5.316;2023-11-21T12:40:04;10.80;99.90
32522;DHT22;18963;51.504;5.316;2023-11-21T12:42:30;10.80;99.90
32522;DHT22;18963;51.504;5.316;2023-11-21T12:45:09;10.80;99.90
32522;DHT22;18963;51.504;5.316;2023-11-21T12:47:39;10.90;99.90
32522;DHT22;18963;51.504;5.316;2023-11-21T12:50:05;10.90;99.90
32522;DHT22;18963;51.504;5.316;2023-11-21T12:52:32;10.90;99.90
32522;DHT22;18963;51.504;5.316;2023-11-21T12:54:57;10.80;99.90
32522;DHT22;18963;51.504;5.316;2023-11-21T12:57:26;10.80;99.90
32522;DHT22;18963;51.504;5.316;2023-11-21T12:59:56;10.80;99.90
32522;DHT22;18963;51.504;5.316;2023-11-21T13:02:22;10.80;99.90
32522;DHT22;18963;51.504;5.316;2023-11-21T13:04:53;10.80;99.90
32522;DHT22;18963;51.504;5.316;2023-11-21T13:07:23;10.80;99.90
32522;DHT22;18963;51.504;5.316;2023-11-21T13:09:52;10.80;99.90
32522;DHT22;18963;51.504;5.316;2023-11-21T13:12:17;10.70;99.90
32522;DHT22;18963;51.504;5.316;2023-11-21T13:14:45;10.70;99.90
32522;DHT22;18963;51.504;5.316;2023-11-21T13:17:11;10.70;99.90
32522;DHT22;18963;51.504;5.316;2023-11-21T13:19:37;10.60;99.90
32522;DHT22;18963;51.504;5.316;2023-11-21T13:22:03;10.50;99.90
32522;DHT22;18963;51.504;5.316;2023-11-21T13:24:29;10.50;99.90
32522;DHT22;18963;51.504;5.316;2023-11-21T13:26:55;10.50;99.90
32522;DHT22;18963;51.504;5.316;2023-11-21T13:29:20;10.50;99.90
32522;DHT22;18963;51.504;5.316;2023-11-21T13:31:46;10.40;99.90
32522;DHT22;18963;51.504;5.316;2023-11-21T13:34:16;10.50;99.90
32522;DHT22;18963;51.504;5.316;2023-11-21T13:36:44;10.50;99.90
32522;DHT22;18963;51.504;5.316;2023-11-21T13:39:10;10.50;99.90
32522;DHT22;18963;51.504;5.316;2023-11-21T13:41:42;10.50;99.90
32522;DHT22;18963;51.504;5.316;2023-11-21T13:44:08;10.50;99.90
32522;DHT22;18963;51.504;5.316;2023-11-21T13:46:51;10.50;99.90
32522;DHT22;18963;51.504;5.316;2023-11-21T13:49:17;10.40;99.90
32522;DHT22;18963;51.504;5.316;2023-11-21T13:51:43;10.40;99.90
32522;DHT22;18963;51.504;5.316;2023-11-21T13:54:16;10.40;99.90
32522;DHT22;18963;51.504;5.316;2023-11-21T13:56:41;10.40;99.90
32522;DHT22;18963;51.504;5.316;2023-11-21T13:59:09;10.40;99.90
32522;DHT22;18963;51.504;5.316;2023-11-21T14:01:46;10.40;99.90
32522;DHT22;18963;51.504;5.316;2023-11-21T14:04:25;10.40;99.90
32522;DHT22;18963;51.504;5.316;2023-11-21T14:07:12;10.30;99.90
32522;DHT22;18963;51.504;5.316;2023-11-21T14:09:52;10.30;99.90
32522;DHT22;18963;51.504;5.316;2023-11-21T14:12:18;10.30;99.90
32522;DHT22;18963;51.504;5.316;2023-11-21T14:14:43;10.30;99.90
32522;DHT22;18963;51.504;5.316;2023-11-21T14:17:10;10.30;99.90
32522;DHT22;18963;51.504;5.316;2023-11-21T14:19:36;10.30;99.90
32522;DHT22;18963;51.504;5.316;2023-11-21T14:22:05;10.30;99.90
32522;DHT22;18963;51.504;5.316;2023-11-21T14:24:31;10.30;99.90
32522;DHT22;18963;51.504;5.316;2023-11-21T14:26:57;10.30;99.90
32522;DHT22;18963;51.504;5.316;2023-11-21T14:29:23;10.30;99.90
32522;DHT22;18963;51.504;5.316;2023-11-21T14:31:49;10.30;99.90
32522;DHT22;18963;51.504;5.316;2023-11-21T14:34:16;10.30;99.90
32522;DHT22;18963;51.504;5.316;2023-11-21T14:36:42;10.30;99.90
32522;DHT22;18963;51.504;5.316;2023-11-21T14:39:09;10.30;99.90
32522;DHT22;18963;51.504;5.316;2023-11-21T14:41:45;10.30;99.90
32522;DHT22;18963;51.504;5.316;2023-11-21T14:44:11;10.30;99.90
32522;DHT22;18963;51.504;5.316;2023-11-21T14:46:38;10.30;99.90
32522;DHT22;18963;51.504;5.316;2023-11-21T14:49:05;10.30;99.90
32522;DHT22;18963;51.504;5.316;2023-11-21T14:51:45;10.30;99.90
32522;DHT22;18963;51.504;5.316;2023-11-21T14:54:31;10.40;99.90
32522;DHT22;18963;51.504;5.316;2023-11-21T14:57:14;10.30;99.90
32522;DHT22;18963;51.504;5.316;2023-11-21T14:59:47;10.30;99.90
32522;DHT22;18963;51.504;5.316;2023-11-21T15:02:23;10.30;99.90
32522;DHT22;18963;51.504;5.316;2023-11-21T15:05:08;10.30;99.90
32522;DHT22;18963;51.504;5.316;2023-11-21T15:07:40;10.20;99.90
32522;DHT22;18963;51.504;5.316;2023-11-21T15:10:05;10.30;99.90
32522;DHT22;18963;51.504;5.316;2023-11-21T15:12:36;10.20;99.90
32522;DHT22;18963;51.504;5.316;2023-11-21T15:15:03;10.20;99.90
32522;DHT22;18963;51.504;5.316;2023-11-21T15:17:29;10.20;99.90
32522;DHT22;18963;51.504;5.316;2023-11-21T15:19:57;10.20;99.90
32522;DHT22;18963;51.504;5.316;2023-11-21T15:22:23;10.10;99.90
32522;DHT22;18963;51.504;5.316;2023-11-21T15:24:48;10.10;99.90
32522;DHT22;18963;51.504;5.316;2023-11-21T15:27:15;10.10;99.90
32522;DHT22;18963;51.504;5.316;2023-11-21T15:29:41;10.00;99.90
32522;DHT22;18963;51.504;5.316;2023-11-21T15:32:07;9.90;99.90
32522;DHT22;18963;51.504;5.316;2023-11-21T15:34:33;9.90;99.90
32522;DHT22;18963;51.504;5.316;2023-11-21T15:36:58;9.90;99.90
32522;DHT22;18963;51.504;5.316;2023-11-21T15:39:24;9.90;99.90
32522;DHT22;18963;51.504;5.316;2023-11-21T15:41:54;9.80;99.90
32522;DHT22;18963;51.504;5.316;2023-11-21T15:44:19;9.80;99.90
32522;DHT22;18963;51.504;5.316;2023-11-21T15:46:45;9.80;99.90
32522;DHT22;18963;51.504;5.316;2023-11-21T15:49:10;9.70;99.90
32522;DHT22;18963;51.504;5.316;2023-11-21T15:51:45;9.80;99.90
32522;DHT22;18963;51.504;5.316;2023-11-21T15:54:12;9.70;99.90
32522;DHT22;18963;51.504;5.316;2023-11-21T15:56:38;9.70;99.90